createdAt,value
2023-01-11T00:00:57.728Z,1.30
2023-01-11T00:03:24.051Z,1.21
2023-01-11T00:05:50.569Z,1.32
2023-01-11T00:08:16.867Z,1.56
2023-01-11T00:10:43.148Z,1.41
2023-01-11T00:13:09.432Z,1.40
2023-01-11T00:15:35.721Z,2.31
2023-01-11T00:18:02.049Z,2.16
2023-01-11T00:20:28.346Z,1.62
2023-01-11T00:22:54.680Z,1.60
2023-01-11T00:25:20.962Z,1.74
2023-01-11T00:27:47.252Z,1.77
2023-01-11T00:30:13.587Z,1.65
2023-01-11T00:32:39.902Z,1.83
2023-01-11T00:35:06.335Z,1.61
2023-01-11T00:37:32.758Z,2.16
2023-01-11T00:39:59.082Z,1.92
2023-01-11T00:42:25.371Z,2.00
2023-01-11T00:44:51.676Z,2.06
2023-01-11T00:47:17.969Z,2.37
2023-01-11T00:49:44.259Z,2.27
2023-01-11T00:52:10.553Z,1.97
2023-01-11T00:54:38.992Z,1.73
2023-01-11T00:57:05.321Z,1.59
2023-01-11T00:59:31.744Z,1.63
2023-01-11T01:01:58.036Z,1.52
2023-01-11T01:04:24.354Z,1.67
2023-01-11T01:06:51.832Z,1.78
2023-01-11T01:09:18.223Z,1.96
2023-01-11T01:11:44.588Z,2.00
2023-01-11T01:14:10.881Z,1.99
2023-01-11T01:16:37.151Z,1.68
2023-01-11T01:19:03.436Z,1.69
2023-01-11T01:21:29.831Z,1.69
2023-01-11T01:23:56.126Z,1.65
2023-01-11T01:26:22.529Z,1.47
2023-01-11T01:28:48.810Z,1.47
2023-01-11T01:31:15.454Z,1.40
2023-01-11T01:33:41.761Z,1.51
2023-01-11T01:36:08.050Z,1.48
2023-01-11T01:38:34.348Z,1.36
2023-01-11T01:41:00.634Z,1.40
2023-01-11T01:43:26.915Z,1.59
2023-01-11T01:45:53.208Z,1.69
2023-01-11T01:48:19.512Z,1.37
2023-01-11T01:50:45.790Z,1.59
2023-01-11T01:53:12.188Z,1.48
2023-01-11T01:55:39.102Z,1.48
2023-01-11T01:58:05.415Z,1.48
2023-01-11T02:00:31.695Z,1.42
2023-01-11T02:03:00.340Z,1.52
2023-01-11T02:05:26.658Z,1.67
2023-01-11T02:07:52.942Z,1.62
2023-01-11T02:10:19.231Z,1.53
2023-01-11T02:12:45.752Z,1.62
2023-01-11T02:15:12.054Z,1.45
2023-01-11T02:17:38.357Z,1.74
2023-01-11T02:20:04.748Z,2.31
2023-01-11T02:22:31.163Z,3.12
2023-01-11T02:24:57.666Z,3.52
2023-01-11T02:27:23.969Z,3.33
2023-01-11T02:29:50.283Z,2.77
2023-01-11T02:32:16.573Z,2.27
2023-01-11T02:34:42.849Z,1.97
2023-01-11T02:37:09.113Z,1.61
2023-01-11T02:39:35.434Z,1.31
2023-01-11T02:42:01.725Z,1.07
2023-01-11T02:44:28.002Z,0.91
2023-01-11T02:46:54.306Z,1.08
2023-01-11T02:49:20.614Z,1.00
2023-01-11T02:51:46.911Z,1.37
2023-01-11T02:54:13.197Z,1.34
2023-01-11T02:56:39.476Z,1.30
2023-01-11T02:59:05.790Z,1.20
2023-01-11T03:01:32.168Z,1.31
2023-01-11T03:03:58.580Z,1.10
2023-01-11T03:06:24.861Z,0.82
2023-01-11T03:08:51.284Z,0.67
2023-01-11T03:11:17.861Z,0.54
2023-01-11T03:13:44.139Z,0.41
2023-01-11T03:16:10.592Z,0.35
2023-01-11T03:18:36.921Z,0.37
2023-01-11T03:21:03.203Z,0.32
2023-01-11T03:23:29.501Z,0.31
2023-01-11T03:25:55.782Z,0.35
2023-01-11T03:28:22.074Z,0.34
2023-01-11T03:30:48.682Z,0.24
2023-01-11T03:33:14.961Z,0.29
2023-01-11T03:35:41.259Z,0.25
2023-01-11T03:38:07.555Z,0.27
2023-01-11T03:40:33.879Z,0.29
2023-01-11T03:43:00.305Z,0.35
2023-01-11T03:45:26.612Z,0.46
2023-01-11T03:47:52.892Z,0.42
2023-01-11T03:50:19.176Z,0.52
2023-01-11T03:52:45.604Z,0.50
2023-01-11T03:55:11.919Z,0.48
2023-01-11T03:57:38.208Z,0.59
2023-01-11T04:00:04.520Z,0.53
2023-01-11T04:02:30.804Z,0.50
2023-01-11T04:04:57.091Z,0.59
2023-01-11T04:07:23.393Z,0.46
2023-01-11T04:09:49.734Z,0.49
2023-01-11T04:12:16.025Z,0.51
2023-01-11T04:14:42.390Z,0.54
2023-01-11T04:17:08.851Z,0.46
2023-01-11T04:19:35.142Z,0.56
2023-01-11T04:22:01.458Z,0.31
2023-01-11T04:24:27.824Z,0.44
2023-01-11T04:26:54.533Z,0.51
2023-01-11T04:29:20.890Z,0.43
2023-01-11T04:31:47.466Z,0.44
2023-01-11T04:34:13.782Z,0.49
2023-01-11T04:36:40.088Z,0.51
2023-01-11T04:39:06.416Z,0.42
2023-01-11T04:41:35.248Z,0.42
2023-01-11T04:44:01.532Z,0.35
2023-01-11T04:46:27.899Z,0.53
2023-01-11T04:48:54.195Z,0.54
2023-01-11T04:51:20.489Z,0.42
2023-01-11T04:53:46.869Z,0.50
2023-01-11T04:56:13.258Z,0.46
2023-01-11T04:58:39.586Z,0.43
2023-01-11T05:01:05.969Z,0.36
2023-01-11T05:03:32.315Z,0.37
2023-01-11T05:05:58.654Z,0.36
2023-01-11T05:14:28.415Z,0.35
2023-01-11T05:16:54.801Z,0.33
2023-01-11T05:19:21.369Z,0.47
2023-01-11T05:21:47.723Z,0.63
2023-01-11T05:24:14.100Z,0.94
2023-01-11T05:26:40.442Z,1.15
2023-01-11T05:29:06.841Z,1.31
2023-01-11T05:31:33.244Z,1.24
2023-01-11T05:33:59.621Z,1.38
2023-01-11T05:36:25.999Z,1.32
2023-01-11T05:38:52.351Z,1.21
2023-01-11T05:41:18.683Z,1.59
2023-01-11T05:43:45.121Z,1.50
2023-01-11T05:46:11.634Z,1.12
2023-01-11T05:48:38.141Z,0.90
2023-01-11T05:51:04.457Z,0.69
2023-01-11T05:53:30.816Z,0.93
2023-01-11T05:55:57.149Z,1.02
2023-01-11T05:58:23.476Z,1.13
2023-01-11T06:00:49.849Z,1.05
2023-01-11T06:03:16.237Z,1.18
2023-01-11T06:05:44.278Z,1.12
2023-01-11T06:08:11.639Z,1.12
2023-01-11T06:10:38.029Z,1.40
2023-01-11T06:13:04.475Z,1.35
2023-01-11T06:15:33.348Z,1.38
2023-01-11T06:17:59.666Z,1.25
2023-01-11T06:20:25.996Z,1.28
2023-01-11T06:22:52.377Z,1.44
2023-01-11T06:25:18.719Z,1.35
2023-01-11T06:27:45.103Z,1.38
2023-01-11T06:30:11.494Z,1.54
2023-01-11T06:32:37.836Z,1.37
2023-01-11T06:35:04.330Z,1.44
2023-01-11T06:37:30.730Z,1.53
2023-01-11T06:39:57.086Z,1.60
2023-01-11T06:42:23.788Z,1.52
2023-01-11T06:44:50.177Z,1.74
2023-01-11T06:47:16.557Z,2.48
2023-01-11T06:49:42.969Z,2.04
2023-01-11T06:52:09.566Z,1.79
2023-01-11T06:54:39.688Z,2.03
2023-01-11T06:57:06.255Z,1.99
2023-01-11T06:59:33.544Z,2.02
2023-01-11T07:02:00.232Z,1.85
2023-01-11T07:04:28.932Z,1.73
2023-01-11T07:06:56.325Z,1.64
2023-01-11T07:09:23.320Z,1.66
2023-01-11T07:11:50.712Z,1.84
2023-01-11T07:14:17.263Z,1.70
2023-01-11T07:16:45.905Z,1.62
2023-01-11T07:19:12.590Z,1.54
2023-01-11T07:21:50.786Z,1.57
2023-01-11T07:24:19.260Z,1.62
2023-01-11T07:26:46.126Z,1.86
2023-01-11T07:29:12.470Z,2.19
2023-01-11T07:31:38.915Z,1.78
2023-01-11T07:34:05.636Z,1.71
2023-01-11T07:36:32.072Z,1.81
2023-01-11T07:39:05.751Z,1.71
2023-01-11T07:41:32.093Z,1.64
2023-01-11T07:43:58.433Z,2.12
2023-01-11T07:46:24.833Z,2.22
2023-01-11T07:48:51.257Z,2.13
2023-01-11T07:51:17.609Z,2.48
2023-01-11T07:53:43.946Z,2.94
2023-01-11T07:56:10.371Z,2.96
2023-01-11T07:58:36.745Z,3.17
2023-01-11T08:01:03.145Z,2.98
2023-01-11T08:03:29.762Z,2.43
2023-01-11T08:05:57.239Z,2.06
2023-01-11T08:08:23.652Z,1.68
2023-01-11T08:10:49.998Z,1.64
2023-01-11T08:13:16.417Z,1.68
2023-01-11T08:15:42.933Z,1.43
2023-01-11T08:18:10.329Z,1.39
2023-01-11T08:20:37.176Z,1.33
2023-01-11T08:23:03.511Z,1.43
2023-01-11T08:25:29.834Z,1.10
2023-01-11T08:27:56.438Z,1.12
2023-01-11T08:30:22.834Z,1.17
2023-01-11T08:32:51.759Z,1.19
2023-01-11T08:35:19.376Z,1.42
2023-01-11T08:37:45.771Z,1.49
2023-01-11T08:40:12.131Z,1.30
2023-01-11T08:42:38.520Z,1.27
2023-01-11T08:45:05.880Z,0.96
2023-01-11T08:47:33.244Z,0.98
2023-01-11T08:49:59.616Z,1.04
2023-01-11T08:52:26.344Z,0.92
2023-01-11T08:54:53.182Z,0.92
2023-01-11T08:57:19.597Z,0.88
2023-01-11T08:59:46.286Z,0.87
2023-01-11T09:02:12.649Z,0.83
2023-01-11T09:04:38.997Z,0.77
2023-01-11T09:07:05.455Z,0.78
2023-01-11T09:09:32.255Z,0.97
2023-01-11T09:12:00.008Z,0.91
2023-01-11T09:14:26.394Z,0.86
2023-01-11T09:16:52.897Z,0.82
2023-01-11T09:19:22.066Z,0.83
2023-01-11T09:21:48.479Z,0.68
2023-01-11T09:24:14.892Z,0.66
2023-01-11T09:26:41.373Z,0.76
2023-01-11T09:29:08.018Z,0.68
2023-01-11T09:31:36.832Z,0.77
2023-01-11T09:34:04.355Z,0.75
2023-01-11T09:36:31.740Z,0.79
2023-01-11T09:38:59.191Z,0.72
2023-01-11T09:41:27.184Z,0.72
2023-01-11T09:43:53.974Z,0.71
2023-01-11T09:46:20.360Z,0.65
2023-01-11T09:48:46.749Z,0.80
2023-01-11T09:51:15.538Z,0.87
2023-01-11T09:53:41.872Z,0.94
2023-01-11T09:56:08.314Z,0.98
2023-01-11T09:58:34.818Z,1.03
2023-01-11T10:01:03.528Z,0.93
2023-01-11T10:03:30.121Z,0.99
2023-01-11T10:05:57.150Z,0.89
2023-01-11T10:18:41.881Z,1.00
2023-01-11T10:19:36.414Z,0.91
2023-01-11T10:22:04.603Z,0.92
2023-01-11T10:24:31.204Z,0.89
2023-01-11T10:26:57.598Z,1.04
2023-01-11T10:29:28.866Z,0.95
2023-01-11T10:31:57.296Z,0.98
2023-01-11T10:34:23.695Z,1.01
2023-01-11T10:36:50.092Z,1.06
2023-01-11T10:39:16.483Z,1.22
2023-01-11T10:41:43.259Z,1.33
2023-01-11T10:44:09.666Z,1.41
2023-01-11T10:46:36.394Z,1.45
2023-01-11T10:49:04.812Z,1.65
2023-01-11T10:51:31.168Z,1.56
2023-01-11T10:53:57.730Z,1.60
2023-01-11T10:56:24.118Z,1.59
2023-01-11T10:58:50.519Z,1.55
2023-01-11T11:01:17.927Z,1.64
2023-01-11T11:03:44.301Z,1.77
2023-01-11T11:06:10.684Z,1.69
2023-01-11T11:08:37.074Z,1.52
2023-01-11T11:11:04.121Z,1.50
2023-01-11T11:13:30.579Z,1.80
2023-01-11T11:15:57.002Z,1.85
2023-01-11T11:18:23.526Z,1.65
2023-01-11T11:20:49.924Z,1.89
2023-01-11T11:23:16.331Z,1.72
2023-01-11T11:25:43.512Z,1.59
2023-01-11T11:28:09.920Z,1.22
2023-01-11T11:30:36.253Z,1.18
2023-01-11T11:33:02.870Z,1.29
2023-01-11T11:35:31.300Z,1.20
2023-01-11T11:37:58.191Z,1.45
2023-01-11T11:40:24.546Z,1.33
2023-01-11T11:42:50.997Z,1.08
2023-01-11T11:45:18.420Z,1.17
2023-01-11T11:47:44.800Z,1.23
2023-01-11T11:50:11.443Z,1.20
2023-01-11T11:52:37.916Z,1.11
2023-01-11T11:55:04.300Z,1.24
2023-01-11T11:57:30.685Z,1.42
2023-01-11T11:59:57.061Z,1.59
2023-01-11T12:02:23.533Z,1.42
2023-01-11T12:04:50.197Z,1.43
2023-01-11T12:07:17.232Z,1.25
2023-01-11T12:09:44.029Z,1.13
2023-01-11T12:12:10.360Z,1.09
2023-01-11T12:14:36.727Z,1.05
2023-01-11T12:17:03.161Z,0.93
2023-01-11T12:19:29.587Z,1.05
2023-01-11T12:21:56.004Z,0.95
2023-01-11T12:24:23.237Z,0.94
2023-01-11T12:26:49.744Z,1.05
2023-01-11T12:29:16.563Z,1.01
2023-01-11T12:31:43.938Z,0.98
2023-01-11T12:34:13.712Z,1.09
2023-01-11T12:36:40.077Z,1.01
2023-01-11T12:39:06.504Z,0.99
2023-01-11T12:41:33.619Z,0.85
2023-01-11T12:43:59.959Z,1.00
2023-01-11T12:46:26.385Z,0.97
2023-01-11T12:48:52.783Z,0.90
2023-01-11T12:51:19.172Z,0.85
2023-01-11T12:53:45.542Z,1.21
2023-01-11T12:56:11.879Z,0.99
2023-01-11T12:58:38.209Z,1.05
2023-01-11T13:01:06.944Z,1.00
2023-01-11T13:03:34.247Z,1.04
2023-01-11T13:06:00.584Z,1.01
2023-01-11T13:08:28.952Z,0.86
2023-01-11T13:11:00.863Z,0.76
2023-01-11T13:13:27.251Z,0.77
2023-01-11T13:15:53.607Z,0.67
2023-01-11T13:18:19.943Z,0.63
2023-01-11T13:20:59.893Z,0.81
2023-01-11T13:23:34.899Z,0.75
2023-01-11T13:26:01.352Z,0.63
2023-01-11T13:28:27.742Z,0.85
2023-01-11T13:30:54.336Z,0.87
2023-01-11T13:33:20.891Z,0.76
2023-01-11T13:35:47.283Z,0.73
2023-01-11T13:38:14.379Z,0.69
2023-01-11T13:40:40.735Z,0.88
2023-01-11T13:43:07.388Z,0.97
2023-01-11T13:45:35.267Z,0.88
2023-01-11T13:48:02.422Z,0.97
2023-01-11T13:50:30.675Z,0.80
2023-01-11T13:52:57.198Z,0.98
2023-01-11T13:55:26.408Z,1.05
2023-01-11T13:57:56.710Z,0.84
2023-01-11T14:00:23.336Z,1.08
2023-01-11T14:02:49.945Z,0.89
2023-01-11T14:05:16.415Z,0.90
2023-01-11T14:07:42.905Z,1.03
2023-01-11T14:10:09.808Z,0.94
2023-01-11T14:12:36.533Z,0.88
2023-01-11T14:15:02.870Z,0.88
2023-01-11T14:17:30.757Z,0.86
2023-01-11T14:19:57.250Z,0.77
2023-01-11T14:22:25.336Z,0.83
2023-01-11T14:24:51.809Z,0.78
2023-01-11T14:27:19.909Z,0.84
2023-01-11T14:29:47.336Z,0.68
2023-01-11T14:32:14.274Z,0.67
2023-01-11T14:34:40.628Z,0.80
2023-01-11T14:37:07.206Z,0.66
2023-01-11T14:39:33.584Z,0.60
2023-01-11T14:42:00.222Z,0.55
2023-01-11T14:44:28.814Z,0.65
2023-01-11T14:46:56.221Z,0.75
2023-01-11T14:49:25.168Z,0.77
2023-01-11T14:51:53.953Z,0.67
2023-01-11T14:54:20.833Z,0.76
2023-01-11T14:56:47.371Z,0.96
2023-01-11T14:59:14.599Z,0.93
2023-01-11T15:01:46.164Z,0.94
2023-01-11T15:04:12.982Z,0.88
2023-01-11T15:06:43.688Z,0.90
2023-01-11T15:09:11.509Z,1.07
2023-01-11T15:11:40.923Z,0.87
2023-01-11T15:14:08.506Z,1.04
2023-01-11T15:16:39.754Z,0.97
2023-01-11T15:19:06.963Z,0.76
2023-01-11T15:21:33.409Z,0.66
2023-01-11T15:24:00.629Z,0.70
2023-01-11T15:26:27.625Z,0.65
2023-01-11T15:28:56.583Z,0.66
2023-01-11T15:31:24.304Z,0.79
2023-01-11T15:33:51.283Z,1.21
2023-01-11T15:36:17.903Z,1.18
2023-01-11T15:38:44.354Z,1.26
2023-01-11T15:41:12.288Z,1.25
2023-01-11T15:43:38.959Z,1.48
2023-01-11T15:46:06.715Z,1.36
2023-01-11T15:48:33.117Z,0.92
2023-01-11T15:50:59.470Z,0.84
2023-01-11T15:53:25.806Z,0.77
2023-01-11T15:55:52.292Z,0.84
2023-01-11T15:58:23.874Z,0.86
2023-01-11T16:00:51.459Z,0.77
2023-01-11T16:03:20.594Z,0.95
2023-01-11T16:05:47.938Z,0.77
2023-01-11T16:08:23.434Z,0.70
2023-01-11T16:10:52.855Z,0.95
2023-01-11T16:13:19.231Z,0.82
2023-01-11T16:15:47.276Z,1.00
2023-01-11T16:18:18.883Z,1.25
2023-01-11T16:20:45.223Z,1.11
2023-01-11T16:23:11.910Z,0.98
2023-01-11T16:25:41.086Z,1.12
2023-01-11T16:28:09.513Z,1.01
2023-01-11T16:30:36.233Z,0.98
2023-01-11T16:33:07.590Z,1.01
2023-01-11T16:35:34.050Z,1.01
2023-01-11T16:38:00.921Z,0.96
2023-01-11T16:40:27.405Z,1.10
2023-01-11T16:42:53.855Z,1.10
2023-01-11T16:45:21.290Z,1.18
2023-01-11T16:47:47.645Z,0.95
2023-01-11T16:50:16.282Z,1.06
2023-01-11T16:55:25.040Z,1.01
2023-01-11T16:57:52.595Z,0.86
2023-01-11T17:00:20.326Z,0.77
2023-01-11T17:02:46.701Z,0.97
2023-01-11T17:05:21.655Z,1.18
2023-01-11T17:07:48.052Z,1.00
2023-01-11T17:10:14.682Z,0.91
2023-01-11T17:12:41.133Z,0.91
2023-01-11T17:15:07.824Z,1.00
2023-01-11T17:17:35.360Z,1.03
2023-01-11T17:20:02.239Z,1.00
2023-01-11T17:22:31.419Z,0.84
2023-01-11T17:24:59.188Z,0.86
2023-01-11T17:27:25.918Z,0.94
2023-01-11T17:29:52.542Z,0.88
2023-01-11T17:32:19.440Z,0.77
2023-01-11T17:34:46.061Z,0.94
2023-01-11T17:37:12.442Z,1.07
2023-01-11T17:39:38.833Z,1.18
2023-01-11T17:42:06.447Z,1.08
2023-01-11T17:44:32.781Z,0.99
2023-01-11T17:46:59.153Z,0.90
2023-01-11T17:49:25.538Z,0.98
2023-01-11T17:51:52.951Z,0.84
2023-01-11T17:54:19.351Z,0.77
2023-01-11T17:56:46.725Z,0.78
2023-01-11T17:59:16.000Z,0.92
2023-01-11T18:01:42.508Z,1.15
2023-01-11T18:04:09.173Z,0.89
2023-01-11T18:06:35.530Z,1.00
2023-01-11T18:09:01.905Z,0.97
2023-01-11T18:11:29.275Z,1.02
2023-01-11T18:13:55.687Z,1.07
2023-01-11T18:16:22.105Z,1.07
2023-01-11T18:18:48.495Z,0.92
2023-01-11T18:21:14.836Z,1.04
2023-01-11T18:23:42.321Z,1.00
2023-01-11T18:26:09.293Z,1.02
2023-01-11T18:28:36.519Z,0.95
2023-01-11T18:31:03.270Z,1.02
2023-01-11T18:33:29.867Z,0.92
2023-01-11T18:36:00.958Z,0.98
2023-01-11T18:38:27.624Z,0.98
2023-01-11T18:40:54.210Z,1.17
2023-01-11T18:43:20.925Z,1.05
2023-01-11T18:45:48.202Z,1.03
2023-01-11T18:48:15.031Z,1.09
2023-01-11T18:50:46.508Z,1.26
2023-01-11T18:53:12.917Z,1.16
2023-01-11T18:55:39.485Z,1.27
2023-01-11T18:58:06.763Z,1.18
2023-01-11T19:00:35.460Z,1.18
2023-01-11T19:03:02.484Z,1.11
2023-01-11T19:05:28.818Z,1.08
2023-01-11T19:07:55.191Z,1.12
2023-01-11T19:10:21.584Z,1.32
2023-01-11T19:12:47.928Z,1.17
2023-01-11T19:15:14.262Z,1.22
2023-01-11T19:17:40.679Z,1.67
2023-01-11T19:20:07.052Z,1.51
2023-01-11T19:22:33.495Z,1.35
2023-01-11T19:24:59.864Z,1.29
2023-01-11T19:27:26.250Z,1.31
2023-01-11T19:29:52.602Z,1.26
2023-01-11T19:32:18.978Z,1.17
2023-01-11T19:34:45.309Z,1.26
2023-01-11T19:37:11.684Z,1.25
2023-01-11T19:39:38.083Z,1.31
2023-01-11T19:42:04.414Z,1.62
2023-01-11T19:44:30.803Z,1.41
2023-01-11T19:47:10.379Z,1.27
2023-01-11T19:49:37.550Z,1.31
2023-01-11T19:52:03.930Z,1.39
2023-01-11T19:54:30.394Z,1.42
2023-01-11T19:56:56.722Z,1.35
2023-01-11T19:59:23.156Z,1.22
2023-01-11T20:01:49.542Z,1.25
2023-01-11T20:04:16.065Z,1.27
2023-01-11T20:06:42.399Z,1.25
2023-01-11T20:09:08.755Z,1.07
2023-01-11T20:11:35.128Z,1.31
2023-01-11T20:14:01.459Z,1.30
2023-01-11T20:16:27.792Z,1.30
2023-01-11T20:18:54.251Z,1.21
2023-01-11T20:21:20.948Z,1.23
2023-01-11T20:23:47.551Z,1.20
2023-01-11T20:26:13.886Z,1.27
2023-01-11T20:28:40.507Z,1.44
2023-01-11T20:31:06.940Z,1.49
2023-01-11T20:33:33.377Z,1.46
2023-01-11T20:35:59.712Z,1.47
2023-01-11T20:38:26.159Z,1.93
2023-01-11T20:40:52.534Z,1.86
2023-01-11T20:43:19.395Z,1.70
2023-01-11T20:45:45.739Z,1.60
2023-01-11T20:48:12.128Z,1.55
2023-01-11T20:50:38.898Z,1.98
2023-01-11T20:53:05.238Z,1.61
2023-01-11T20:55:31.747Z,1.44
2023-01-11T20:57:58.267Z,1.60
2023-01-11T21:00:24.701Z,1.71
2023-01-11T21:02:51.255Z,1.70
2023-01-11T21:05:17.643Z,1.82
2023-01-11T21:07:44.199Z,1.81
2023-01-11T21:10:10.751Z,1.64
2023-01-11T21:15:04.064Z,1.86
2023-01-11T21:17:30.655Z,1.71
2023-01-11T21:19:57.054Z,1.53
2023-01-11T21:22:23.449Z,1.85
2023-01-11T21:24:50.021Z,1.53
2023-01-11T21:27:16.435Z,1.90
2023-01-11T21:29:42.803Z,1.81
2023-01-11T21:32:09.158Z,1.74
2023-01-11T21:34:35.632Z,1.66
2023-01-11T21:37:02.039Z,2.00
2023-01-11T21:39:28.420Z,1.82
2023-01-11T21:41:55.171Z,1.79
2023-01-11T21:44:22.701Z,2.00
2023-01-11T21:46:49.696Z,2.25
2023-01-11T21:49:16.095Z,2.18
2023-01-11T21:51:42.577Z,2.03
2023-01-11T21:54:09.449Z,2.03
2023-01-11T21:56:35.984Z,1.94
2023-01-11T21:59:02.379Z,2.02
2023-01-11T22:01:28.714Z,2.46
2023-01-11T22:03:55.082Z,2.50
2023-01-11T22:06:21.515Z,2.70
2023-01-11T22:08:48.056Z,2.51
2023-01-11T22:11:14.427Z,2.47
2023-01-11T22:13:40.814Z,2.35
2023-01-11T22:16:07.174Z,2.05
2023-01-11T22:18:33.513Z,2.12
2023-01-11T22:20:59.835Z,2.08
2023-01-11T22:23:26.176Z,2.03
2023-01-11T22:25:52.552Z,1.92
2023-01-11T22:28:18.950Z,1.92
2023-01-11T22:30:45.343Z,1.78
2023-01-11T22:33:11.742Z,1.77
2023-01-11T22:35:38.129Z,1.94
2023-01-11T22:38:04.583Z,1.87
2023-01-11T22:40:30.987Z,1.86
2023-01-11T22:42:57.321Z,1.91
2023-01-11T22:45:23.808Z,1.86
2023-01-11T22:47:50.269Z,2.14
2023-01-11T22:50:16.617Z,2.07
2023-01-11T22:52:42.993Z,2.19
2023-01-11T22:55:09.506Z,2.20
2023-01-11T22:57:35.870Z,2.54
2023-01-11T23:00:02.253Z,2.35
2023-01-11T23:02:28.634Z,2.75
2023-01-11T23:04:55.027Z,2.58
2023-01-11T23:07:22.375Z,2.77
2023-01-11T23:09:48.927Z,2.78
2023-01-11T23:12:15.271Z,2.76
2023-01-11T23:14:41.732Z,2.78
2023-01-11T23:17:08.240Z,2.54
2023-01-11T23:19:34.586Z,2.75
2023-01-11T23:22:00.916Z,2.75
2023-01-11T23:24:27.279Z,2.73
2023-01-11T23:26:53.646Z,2.63
2023-01-11T23:29:19.990Z,3.02
2023-01-11T23:31:46.397Z,3.73
2023-01-11T23:34:12.755Z,3.90
2023-01-11T23:36:39.092Z,4.06
2023-01-11T23:39:05.957Z,3.92
2023-01-11T23:41:32.351Z,3.73
2023-01-11T23:43:58.696Z,3.87
2023-01-11T23:46:25.048Z,3.92
2023-01-11T23:48:51.406Z,3.91
2023-01-11T23:51:17.777Z,3.87
2023-01-11T23:53:44.135Z,3.57
2023-01-11T23:56:10.841Z,3.48
2023-01-11T23:58:37.285Z,3.34
